Time;durP1;ratioP1;P1;durP2;ratioP2;P2;SDS_P1;SDS_P2;PMS_P1;PMS_P2;Temp;Humidity;BMP_temperature;BMP_pressure;BME280_temperature;BME280_humidity;BME280_pressure;Samples;Min_cycle;Max_cycle;Signal;HPM_P1;HPM_P2
2021/06/28 00:00:36;;;;;;;9.38;8.20;;;;;;;15.27;78.48;96335.47;3572454;40;20758;-63
2021/06/28 00:03:05;;;;;;;11.82;9.43;;;;;;;15.21;78.96;96332.03;3566891;40;20058;-63
2021/06/28 00:05:33;;;;;;;10.32;9.32;;;;;;;15.17;79.32;96341.63;3574149;40;20053;-63
2021/06/28 00:08:03;;;;;;;10.05;9.02;;;;;;;15.16;79.08;96341.91;3569155;40;20787;-62
2021/06/28 00:10:32;;;;;;;9.73;8.85;;;;;;;15.12;79.16;96338.19;3557262;40;20048;-62
2021/06/28 00:13:00;;;;;;;10.55;9.45;;;;;;;15.06;78.92;96338.25;3565590;40;20421;-62
2021/06/28 00:15:31;;;;;;;9.95;9.07;;;;;;;15.00;79.31;96327.91;3576766;40;20056;-62
2021/06/28 00:18:00;;;;;;;10.85;9.88;;;;;;;14.99;79.31;96332.41;3573546;40;20883;-62
2021/06/28 00:20:28;;;;;;;10.65;9.68;;;;;;;14.95;80.01;96326.09;3565871;40;20064;-62
2021/06/28 00:22:55;;;;;;;9.88;8.88;;;;;;;14.95;79.81;96330.59;3578249;40;20052;-62
2021/06/28 00:25:23;;;;;;;10.10;9.20;;;;;;;14.99;80.02;96334.28;3575869;40;20052;-62
2021/06/28 00:27:51;;;;;;;8.27;7.40;;;;;;;14.98;80.01;96330.81;3565260;40;20048;-62
2021/06/28 00:30:30;;;;;;;9.00;8.25;;;;;;;14.96;80.11;96329.53;3566196;40;20044;-63
2021/06/28 00:32:59;;;;;;;9.60;8.70;;;;;;;14.92;80.03;96329.28;3567364;40;20052;-62
2021/06/28 00:35:26;;;;;;;10.38;9.25;;;;;;;14.94;79.74;96336.97;3564609;40;20044;-62
2021/06/28 00:37:54;;;;;;;9.93;9.13;;;;;;;14.95;79.81;96323.41;3568041;40;20532;-63
2021/06/28 00:40:22;;;;;;;10.35;9.45;;;;;;;15.00;80.12;96331.34;3567350;40;20044;-62
2021/06/28 00:42:50;;;;;;;10.55;8.90;;;;;;;15.01;79.74;96332.16;3573457;40;20057;-62
2021/06/28 00:45:31;;;;;;;8.63;7.90;;;;;;;15.07;79.57;96336.38;3574863;40;20066;-62
2021/06/28 00:48:02;;;;;;;9.85;9.05;;;;;;;15.12;79.69;96338.19;3576905;40;20056;-62
2021/06/28 00:50:31;;;;;;;9.73;8.65;;;;;;;15.13;79.32;96332.63;3575281;40;20047;-63
2021/06/28 00:53:02;;;;;;;10.30;9.30;;;;;;;15.13;78.92;96326.50;3557184;40;20079;-62
2021/06/28 00:55:31;;;;;;;8.88;8.07;;;;;;;15.15;78.96;96327.81;3565280;40;20052;-62
2021/06/28 00:57:59;;;;;;;10.07;9.15;;;;;;;15.14;78.04;96331.53;3557927;40;20086;-62
2021/06/28 01:00:27;;;;;;;9.70;8.75;;;;;;;15.12;77.97;96332.88;3566722;40;20050;-62
2021/06/28 01:02:56;;;;;;;11.00;9.25;;;;;;;15.09;78.02;96333.44;3565404;40;20480;-62
2021/06/28 01:05:28;;;;;;;10.15;9.15;;;;;;;15.07;78.52;96331.88;3557953;40;20052;-62
2021/06/28 01:07:55;;;;;;;8.55;7.68;;;;;;;15.06;78.50;96324.97;3558819;40;21085;-62
2021/06/28 01:10:23;;;;;;;10.07;9.20;;;;;;;15.10;78.22;96335.00;3574049;40;20064;-62
2021/06/28 01:12:53;;;;;;;9.40;8.60;;;;;;;15.06;78.14;96322.31;3574599;40;20071;-62
2021/06/28 01:15:22;;;;;;;10.82;9.82;;;;;;;15.04;78.40;96336.91;3568406;40;20324;-62
2021/06/28 01:17:51;;;;;;;9.82;8.90;;;;;;;15.05;78.16;96328.69;3566611;40;20359;-63
2021/06/28 01:20:25;;;;;;;8.90;8.10;;;;;;;15.13;78.17;96327.31;3575680;40;20056;-62
2021/06/28 01:22:57;;;;;;;9.20;8.30;;;;;;;15.17;78.36;96340.84;3567191;40;20045;-62
2021/06/28 01:25:28;;;;;;;9.15;8.30;;;;;;;15.21;77.88;96334.69;3576542;40;20048;-62
2021/06/28 01:27:56;;;;;;;9.00;8.20;;;;;;;15.22;77.49;96332.81;3555492;40;20042;-63
2021/06/28 01:30:28;;;;;;;9.10;8.10;;;;;;;15.26;77.66;96335.75;3562247;40;20040;-62
2021/06/28 01:32:57;;;;;;;11.15;9.27;;;;;;;15.22;77.38;96332.81;3572490;40;20058;-62
2021/06/28 01:35:25;;;;;;;8.85;7.97;;;;;;;15.25;77.92;96329.63;3573256;40;20118;-62
2021/06/28 01:37:53;;;;;;;9.00;8.13;;;;;;;15.21;77.34;96329.38;3575170;40;20079;-63
2021/06/28 01:40:21;;;;;;;9.10;8.27;;;;;;;15.22;77.53;96333.63;3566870;40;20052;-62
2021/06/28 01:42:49;;;;;;;9.32;8.43;;;;;;;15.21;77.70;96329.38;3565100;40;20435;-62
2021/06/28 01:45:20;;;;;;;10.00;8.88;;;;;;;15.21;77.65;96331.22;3558219;40;20045;-62
2021/06/28 01:47:49;;;;;;;9.07;8.18;;;;;;;15.22;77.17;96330.16;3568049;40;20086;-62
2021/06/28 01:50:18;;;;;;;9.82;8.25;;;;;;;15.22;77.48;96335.47;3573954;40;20056;-62
2021/06/28 01:52:47;;;;;;;9.07;8.27;;;;;;;15.22;77.57;96328.31;3566891;40;20062;-62
2021/06/28 01:55:17;;;;;;;9.25;8.35;;;;;;;15.22;77.41;96332.81;3573941;40;20053;-62
2021/06/28 01:57:59;;;;;;;9.30;8.57;;;;;;;15.22;77.29;96325.66;3575953;40;20056;-62
2021/06/28 02:00:30;;;;;;;9.45;8.65;;;;;;;15.29;76.84;96328.00;3574680;40;20320;-62
2021/06/28 02:03:11;;;;;;;9.20;8.15;;;;;;;15.31;76.73;96327.72;3566572;40;20044;-62
2021/06/28 02:05:42;;;;;;;9.20;8.40;;;;;;;15.31;77.45;96333.84;3575832;40;20086;-62
2021/06/28 02:08:11;;;;;;;11.50;9.25;;;;;;;15.32;77.04;96338.06;3576513;40;20056;-62
2021/06/28 02:10:48;;;;;;;9.13;8.13;;;;;;;15.30;76.71;96340.22;3575762;40;20511;-62
2021/06/28 02:13:17;;;;;;;9.77;8.00;;;;;;;15.31;76.99;96338.34;3578537;40;20044;-62
2021/06/28 02:15:45;;;;;;;10.05;9.15;;;;;;;15.34;76.70;96343.13;3573456;40;20086;-63
2021/06/28 02:18:14;;;;;;;10.95;8.55;;;;;;;15.41;76.92;96342.81;3576101;40;20048;-62
2021/06/28 02:20:42;;;;;;;9.25;8.45;;;;;;;15.43;76.11;96335.38;3578296;40;20571;-62
2021/06/28 02:23:23;;;;;;;9.05;8.15;;;;;;;15.43;76.04;96338.03;3567524;40;20059;-62
2021/06/28 02:25:59;;;;;;;9.60;8.68;;;;;;;15.41;76.19;96340.16;3568164;40;20103;-62
2021/06/28 02:28:28;;;;;;;9.68;8.20;;;;;;;15.46;76.82;96340.09;3576083;40;20056;-62
2021/06/28 02:30:58;;;;;;;9.95;8.95;;;;;;;15.49;76.61;96344.88;3581355;40;20831;-62
2021/06/28 02:33:27;;;;;;;9.07;8.35;;;;;;;15.45;76.37;96344.66;3580281;40;20044;-62
2021/06/28 02:35:55;;;;;;;10.57;9.27;;;;;;;15.40;76.51;96338.56;3580609;40;20068;-63
2021/06/28 02:38:23;;;;;;;10.18;9.15;;;;;;;15.41;76.48;96337.50;3575279;40;20050;-63
2021/06/28 02:40:51;;;;;;;10.38;9.38;;;;;;;15.44;76.96;96339.63;3575957;40;20058;-63
2021/06/28 02:43:19;;;;;;;8.90;8.10;;;;;;;15.50;75.84;96346.47;3574093;40;20058;-63
2021/06/28 02:45:48;;;;;;;10.55;9.45;;;;;;;15.47;75.14;96344.34;3575391;40;20070;-62
2021/06/28 02:48:15;;;;;;;9.55;8.02;;;;;;;15.45;75.21;96343.84;3572845;40;20056;-62
2021/06/28 02:50:44;;;;;;;9.88;9.00;;;;;;;15.45;74.94;96347.31;3565174;40;20419;-62
2021/06/28 02:53:16;;;;;;;8.50;7.80;;;;;;;15.43;74.64;96346.00;3557434;40;20060;-63
2021/06/28 02:55:45;;;;;;;8.35;7.43;;;;;;;15.42;75.05;96347.84;3568832;40;20040;-63
2021/06/28 02:58:14;;;;;;;9.13;8.15;;;;;;;15.42;74.92;96342.53;3575443;40;20055;-62
2021/06/28 03:00:43;;;;;;;8.93;8.10;;;;;;;15.38;74.71;96346.84;3570997;40;20049;-62
2021/06/28 03:03:11;;;;;;;8.93;8.13;;;;;;;15.38;74.52;96341.53;3572604;40;20052;-62
2021/06/28 03:05:40;;;;;;;11.88;8.27;;;;;;;15.36;74.56;96348.97;3554367;40;20115;-62
2021/06/28 03:08:08;;;;;;;8.60;7.80;;;;;;;15.40;74.22;96347.31;3565230;40;20041;-62
2021/06/28 03:10:37;;;;;;;10.82;8.27;;;;;;;15.37;74.06;96347.91;3557489;40;20049;-62
2021/06/28 03:13:07;;;;;;;9.25;8.35;;;;;;;15.35;74.19;96347.38;3575340;40;20309;-62
2021/06/28 03:15:36;;;;;;;8.57;7.82;;;;;;;15.33;73.91;96344.19;3562625;40;20051;-62
2021/06/28 03:18:06;;;;;;;9.07;8.27;;;;;;;15.27;74.46;96332.81;3572414;40;20044;-62
2021/06/28 03:20:33;;;;;;;8.85;8.05;;;;;;;15.35;74.28;96342.84;3564138;40;20063;-62
2021/06/28 03:23:02;;;;;;;9.60;8.60;;;;;;;15.31;73.97;96341.81;3573753;40;20115;-62
2021/06/28 03:25:32;;;;;;;8.82;7.93;;;;;;;15.34;74.56;96346.56;3563550;40;20350;-63
2021/06/28 03:28:00;;;;;;;8.60;7.80;;;;;;;15.35;74.33;96348.16;3562643;40;20059;-63
2021/06/28 03:30:28;;;;;;;9.27;8.45;;;;;;;15.36;73.90;96336.47;3563071;40;20216;-62
2021/06/28 03:32:56;;;;;;;8.75;7.95;;;;;;;15.36;74.00;96335.69;3564229;40;20049;-62
2021/06/28 03:35:24;;;;;;;10.25;8.38;;;;;;;15.30;74.00;96334.91;3563928;40;20060;-62
2021/06/28 03:37:51;;;;;;;8.45;7.72;;;;;;;15.38;73.96;96344.19;3562777;40;20029;-62
2021/06/28 03:40:19;;;;;;;8.32;7.63;;;;;;;15.38;73.97;96344.19;3560709;40;20313;-63
2021/06/28 03:42:47;;;;;;;8.95;8.05;;;;;;;15.41;73.78;96346.25;3565746;40;20060;-62
2021/06/28 03:45:15;;;;;;;8.57;7.88;;;;;;;15.43;74.15;96344.13;3561381;40;20067;-62
2021/06/28 03:47:43;;;;;;;7.88;7.07;;;;;;;15.43;73.89;96348.66;3562107;40;20059;-62
2021/06/28 03:50:12;;;;;;;8.85;8.00;;;;;;;15.49;73.59;96348.34;3562339;40;20045;-62
2021/06/28 03:52:40;;;;;;;9.98;7.88;;;;;;;15.47;73.76;96350.50;3562857;40;20075;-62
2021/06/28 03:55:09;;;;;;;10.35;9.10;;;;;;;15.44;73.75;96348.38;3572405;40;20051;-62
2021/06/28 03:57:37;;;;;;;9.48;8.35;;;;;;;15.53;73.74;96356.56;3564752;40;20052;-62
2021/06/28 04:00:11;;;;;;;8.50;7.70;;;;;;;15.60;73.09;96343.75;3529900;40;1378039;-62
2021/06/28 04:02:42;;;;;;;9.90;9.00;;;;;;;15.65;73.31;96342.91;3566179;40;20055;-62
2021/06/28 04:05:12;;;;;;;8.30;7.47;;;;;;;15.72;73.16;96350.56;3565724;40;20049;-62
2021/06/28 04:07:42;;;;;;;8.65;7.75;;;;;;;15.73;72.90;96346.84;3554653;40;20059;-62
2021/06/28 04:10:14;;;;;;;10.55;8.40;;;;;;;15.73;72.91;96349.50;3558568;40;20096;-62
2021/06/28 04:12:44;;;;;;;10.18;9.27;;;;;;;15.71;73.06;96347.13;3567408;40;20053;-62
2021/06/28 04:15:12;;;;;;;9.85;8.95;;;;;;;15.75;73.24;96352.69;3568334;40;20309;-62
2021/06/28 04:17:43;;;;;;;10.07;8.13;;;;;;;15.80;73.46;96350.00;3556788;40;20056;-62
2021/06/28 04:20:11;;;;;;;10.25;8.65;;;;;;;15.84;73.26;96351.00;3565771;40;20408;-62
2021/06/28 04:22:40;;;;;;;9.98;8.90;;;;;;;15.89;72.96;96356.31;3566054;40;20156;-62
2021/06/28 04:25:11;;;;;;;10.13;9.15;;;;;;;15.92;72.86;96355.78;3565099;40;20394;-62
2021/06/28 04:27:39;;;;;;;12.02;10.52;;;;;;;15.94;72.75;96353.59;3566233;40;20065;-62
2021/06/28 04:30:09;;;;;;;10.45;9.27;;;;;;;16.01;72.74;96344.53;3563361;40;20790;-62
2021/06/28 04:32:38;;;;;;;8.13;7.38;;;;;;;16.04;73.07;96347.41;3556220;40;20078;-62
2021/06/28 04:35:09;;;;;;;10.25;9.25;;;;;;;16.10;73.13;96342.84;3565172;40;20057;-62
2021/06/28 04:37:37;;;;;;;13.27;10.07;;;;;;;16.12;73.24;96338.03;3564547;40;20044;-62
2021/06/28 04:40:07;;;;;;;13.73;10.43;;;;;;;16.10;74.46;96345.50;3578134;40;20122;-62
2021/06/28 04:42:35;;;;;;;12.70;11.45;;;;;;;16.17;74.08;96345.16;3570214;40;20076;-62
2021/06/28 04:45:04;;;;;;;11.75;10.55;;;;;;;16.24;74.04;96341.09;3578030;40;20083;-62
2021/06/28 04:47:32;;;;;;;12.98;10.20;;;;;;;16.36;74.24;96339.94;3562708;40;20045;-63
2021/06/28 04:50:03;;;;;;;14.60;10.68;;;;;;;16.39;73.48;96340.16;3570822;40;20803;-62
2021/06/28 04:52:31;;;;;;;11.85;9.23;;;;;;;16.38;73.20;96345.75;3564447;40;20048;-62
2021/06/28 04:55:04;;;;;;;10.75;9.50;;;;;;;16.42;72.18;96346.81;3569385;40;20057;-62
2021/06/28 04:57:32;;;;;;;10.48;8.43;;;;;;;16.48;71.83;96355.53;3560262;40;20061;-62
2021/06/28 04:59:59;;;;;;;9.23;8.32;;;;;;;16.59;71.64;96360.44;3574325;40;20050;-62
2021/06/28 05:02:27;;;;;;;12.70;11.40;;;;;;;16.69;71.84;96356.06;3579597;40;20048;-62
2021/06/28 05:04:55;;;;;;;11.77;9.57;;;;;;;16.73;72.34;96370.41;3578707;40;20055;-62
2021/06/28 05:07:22;;;;;;;12.63;10.02;;;;;;;16.83;72.22;96366.84;3580126;40;20048;-62
2021/06/28 05:09:50;;;;;;;12.48;11.18;;;;;;;16.92;72.21;96365.91;3571272;40;20037;-63
2021/06/28 05:12:18;;;;;;;11.55;10.48;;;;;;;17.00;71.53;96367.19;3568414;40;20055;-62
2021/06/28 05:14:46;;;;;;;12.73;9.50;;;;;;;17.14;71.33;96364.63;3569616;40;20057;-62
2021/06/28 05:17:14;;;;;;;10.93;9.88;;;;;;;17.32;71.21;96364.91;3577216;40;20066;-62
2021/06/28 05:19:42;;;;;;;12.38;11.07;;;;;;;17.43;70.99;96362.91;3571325;40;20353;-62
2021/06/28 05:22:10;;;;;;;14.18;11.38;;;;;;;17.56;70.97;96350.72;3577399;40;20410;-62
2021/06/28 05:24:37;;;;;;;13.43;12.05;;;;;;;17.72;70.04;96354.75;3571465;40;20052;-62
2021/06/28 05:27:06;;;;;;;13.23;11.65;;;;;;;17.81;70.57;96353.00;3571344;40;20044;-62
2021/06/28 05:29:33;;;;;;;13.68;12.27;;;;;;;17.91;69.95;96357.38;3572326;40;20055;-62
2021/06/28 05:32:02;;;;;;;14.15;11.38;;;;;;;18.01;70.02;96364.47;3578583;40;20052;-62
2021/06/28 05:34:30;;;;;;;11.98;10.70;;;;;;;18.06;69.38;96360.91;3567999;40;20055;-63
2021/06/28 05:36:57;;;;;;;12.98;11.68;;;;;;;18.16;69.30;96368.75;3567677;40;20072;-63
2021/06/28 05:39:25;;;;;;;13.75;11.70;;;;;;;18.12;68.11;96368.53;3579024;40;20052;-62
2021/06/28 05:41:53;;;;;;;17.42;12.20;;;;;;;18.06;68.61;96363.59;3580186;40;20321;-62
2021/06/28 05:44:20;;;;;;;12.35;11.10;;;;;;;18.09;69.64;96366.44;3579892;40;20041;-62
2021/06/28 05:46:49;;;;;;;12.70;11.50;;;;;;;18.25;68.28;96364.31;3571953;40;20054;-62
2021/06/28 05:49:16;;;;;;;13.10;10.75;;;;;;;18.47;68.53;96362.06;3579368;40;20044;-64
2021/06/28 05:51:44;;;;;;;13.02;11.73;;;;;;;18.64;66.94;96354.28;3579577;40;20054;-62
2021/06/28 05:54:12;;;;;;;13.55;11.90;;;;;;;18.69;67.52;96361.41;3583150;40;20045;-62
2021/06/28 05:56:39;;;;;;;14.25;11.77;;;;;;;18.73;66.71;96367.72;3573540;40;20047;-63
2021/06/28 05:59:07;;;;;;;12.85;11.63;;;;;;;18.74;67.41;96366.63;3572155;40;20044;-62
2021/06/28 06:01:37;;;;;;;15.15;12.25;;;;;;;18.86;66.53;96371.47;3568257;40;20054;-64
2021/06/28 06:04:12;;;;;;;14.75;12.80;;;;;;;18.86;66.78;96374.16;3574321;40;20047;-62
2021/06/28 06:06:41;;;;;;;14.57;13.10;;;;;;;18.85;66.26;96369.91;3582314;40;20309;-62
2021/06/28 06:09:09;;;;;;;14.02;12.65;;;;;;;18.99;66.34;96362.69;3565201;40;20054;-62
2021/06/28 06:11:37;;;;;;;15.43;12.63;;;;;;;19.08;66.48;96370.00;3581205;40;20066;-62
2021/06/28 06:14:05;;;;;;;14.55;12.90;;;;;;;19.33;65.51;96368.66;3572097;40;20110;-62
2021/06/28 06:16:33;;;;;;;14.38;12.20;;;;;;;19.53;64.75;96359.38;3574216;40;20053;-63
2021/06/28 06:19:00;;;;;;;14.18;12.55;;;;;;;19.70;64.57;96365.97;3578754;40;20109;-61
2021/06/28 06:21:28;;;;;;;13.30;12.00;;;;;;;19.79;64.59;96364.16;3582715;40;20067;-62
2021/06/28 06:23:56;;;;;;;15.02;12.57;;;;;;;19.91;64.35;96359.06;3580953;40;20060;-62
2021/06/28 06:26:24;;;;;;;13.88;12.60;;;;;;;19.98;63.80;96358.63;3582057;40;20062;-61
2021/06/28 06:28:52;;;;;;;13.73;12.07;;;;;;;19.96;63.68;96361.63;3571785;40;20286;-61
2021/06/28 06:31:20;;;;;;;12.93;11.63;;;;;;;19.97;63.92;96360.53;3570862;40;20048;-65
2021/06/28 06:33:48;;;;;;;14.48;12.95;;;;;;;19.96;63.83;96355.47;3580268;40;20049;-60
2021/06/28 06:36:16;;;;;;;13.88;12.48;;;;;;;19.88;63.48;96358.91;3554231;40;20052;-64
2021/06/28 06:38:43;;;;;;;12.48;11.32;;;;;;;19.86;63.57;96353.84;3571714;40;20650;-62
2021/06/28 06:41:12;;;;;;;12.38;11.27;;;;;;;19.92;63.68;96355.28;3570779;40;20055;-64
2021/06/28 06:43:39;;;;;;;14.23;11.18;;;;;;;19.92;63.29;96357.19;3573038;40;20309;-64
2021/06/28 06:46:07;;;;;;;12.85;11.85;;;;;;;19.89;63.59;96358.56;3581920;40;20095;-63
2021/06/28 06:48:35;;;;;;;12.18;10.80;;;;;;;19.94;63.97;96361.16;3572992;40;20592;-63
2021/06/28 06:51:03;;;;;;;13.57;11.55;;;;;;;20.11;64.46;96355.09;3562587;40;20090;-64
2021/06/28 06:53:32;;;;;;;12.20;11.10;;;;;;;20.22;62.68;96362.88;3574096;40;20603;-61
2021/06/28 06:56:05;;;;;;;13.02;11.73;;;;;;;20.30;63.24;96358.66;3579691;40;20053;-62
2021/06/28 06:58:34;;;;;;;15.18;11.60;;;;;;;20.39;62.68;96351.44;3578409;40;20099;-64
2021/06/28 07:01:05;;;;;;;12.25;11.23;;;;;;;20.44;62.85;96341.38;3565409;40;20827;-65
2021/06/28 07:03:33;;;;;;;11.25;10.13;;;;;;;20.61;62.81;96353.28;3569175;40;20397;-63
2021/06/28 07:06:01;;;;;;;13.48;11.15;;;;;;;20.65;62.06;96348.09;3569603;40;20313;-64
2021/06/28 07:08:28;;;;;;;12.75;11.52;;;;;;;20.66;61.84;96349.66;3570521;40;20057;-64
2021/06/28 07:10:56;;;;;;;12.73;11.50;;;;;;;20.74;62.23;96346.22;3570927;40;20072;-63
2021/06/28 07:13:24;;;;;;;12.98;11.55;;;;;;;20.67;61.74;96348.56;3578540;40;20052;-64
2021/06/28 07:15:51;;;;;;;12.75;10.63;;;;;;;20.66;62.08;96331.72;3573761;40;20056;-63
2021/06/28 07:18:19;;;;;;;11.25;10.07;;;;;;;20.89;61.69;96332.41;3577641;40;20056;-64
2021/06/28 07:20:47;;;;;;;12.80;11.48;;;;;;;21.08;60.77;96334.03;3568025;40;20449;-64
2021/06/28 07:23:14;;;;;;;12.98;10.48;;;;;;;21.17;61.49;96337.53;3553053;40;20049;-63
2021/06/28 07:25:43;;;;;;;13.55;11.13;;;;;;;21.40;61.19;96337.38;3571224;40;20033;-64
2021/06/28 07:28:11;;;;;;;12.32;10.65;;;;;;;21.56;60.18;96339.59;3573343;40;20059;-62
2021/06/28 07:30:41;;;;;;;13.32;10.27;;;;;;;21.71;58.20;96333.78;3562058;40;20060;-64
2021/06/28 07:33:09;;;;;;;11.77;9.98;;;;;;;21.76;58.04;96327.44;3571355;40;20078;-64
2021/06/28 07:35:37;;;;;;;9.98;8.98;;;;;;;21.82;57.75;96331.53;3572789;40;20586;-62
2021/06/28 07:38:06;;;;;;;12.30;8.98;;;;;;;21.76;57.51;96333.59;3564521;40;20061;-63
2021/06/28 07:40:33;;;;;;;12.77;9.10;;;;;;;21.84;58.10;96325.88;3568344;40;20547;-64
2021/06/28 07:43:02;;;;;;;14.77;10.18;;;;;;;22.04;57.59;96321.69;3570457;40;20057;-64
2021/06/28 07:45:31;;;;;;;14.45;8.75;;;;;;;22.31;57.53;96303.59;3570974;40;20041;-63
2021/06/28 07:48:02;;;;;;;12.27;8.40;;;;;;;22.35;56.37;96310.69;3572703;40;20329;-63
2021/06/28 07:50:29;;;;;;;10.70;9.57;;;;;;;22.40;54.93;96315.13;3570596;40;20049;-63
2021/06/28 07:52:57;;;;;;;10.95;8.48;;;;;;;22.51;55.45;96310.97;3567601;40;20053;-64
2021/06/28 07:55:24;;;;;;;11.02;9.05;;;;;;;22.67;54.86;96315.78;3563915;40;20057;-63
2021/06/28 07:57:52;;;;;;;15.02;9.57;;;;;;;22.78;54.32;96306.25;3569160;40;20044;-63
2021/06/28 08:00:20;;;;;;;9.98;8.60;;;;;;;23.01;54.28;96311.34;3576753;40;20044;-63
2021/06/28 08:02:49;;;;;;;12.20;9.10;;;;;;;23.18;52.92;96315.81;3582057;40;21071;-62
2021/06/28 08:05:17;;;;;;;11.93;9.43;;;;;;;23.19;52.54;96306.63;3579696;40;20063;-63
2021/06/28 08:07:45;;;;;;;13.43;7.95;;;;;;;23.19;53.05;96309.31;3579827;40;20492;-63
2021/06/28 08:10:14;;;;;;;10.50;8.18;;;;;;;23.33;52.94;96301.00;3578593;40;20056;-62
2021/06/28 08:12:44;;;;;;;8.23;7.53;;;;;;;23.41;52.25;96307.44;3580143;40;20062;-63
2021/06/28 08:15:15;;;;;;;10.35;7.53;;;;;;;23.43;52.03;96311.38;3579529;40;20040;-62
2021/06/28 08:17:43;;;;;;;10.90;7.80;;;;;;;23.41;52.64;96307.44;3570101;40;20058;-62
2021/06/28 08:20:12;;;;;;;11.88;7.88;;;;;;;23.45;52.60;96298.38;3581249;40;20378;-62
2021/06/28 08:22:39;;;;;;;8.57;7.72;;;;;;;23.63;52.51;96296.31;3581911;40;20049;-62
2021/06/28 08:25:08;;;;;;;8.23;7.47;;;;;;;23.79;50.76;96301.06;3583882;40;20063;-62
2021/06/28 08:27:36;;;;;;;8.32;7.57;;;;;;;23.80;50.41;96302.66;3583095;40;20048;-63
2021/06/28 08:30:06;;;;;;;7.63;6.97;;;;;;;23.83;49.99;96301.97;3583566;40;20053;-62
2021/06/28 08:32:35;;;;;;;8.57;6.93;;;;;;;23.90;50.11;96290.66;3583921;40;20046;-62
2021/06/28 08:35:04;;;;;;;8.88;8.07;;;;;;;24.01;50.01;96297.22;3581840;40;20044;-62
2021/06/28 08:37:32;;;;;;;10.80;7.47;;;;;;;24.17;50.16;96289.28;3581910;40;20324;-62
2021/06/28 08:40:00;;;;;;;10.02;7.38;;;;;;;24.38;49.95;96291.88;3573935;40;20057;-62
2021/06/28 08:42:27;;;;;;;8.57;7.35;;;;;;;24.56;49.41;96284.34;3582117;40;20045;-62
2021/06/28 08:44:55;;;;;;;8.45;7.10;;;;;;;24.69;49.04;96289.75;3582457;40;20054;-62
2021/06/28 08:47:23;;;;;;;8.25;6.95;;;;;;;24.87;48.22;96296.50;3572682;40;20046;-63
2021/06/28 08:49:51;;;;;;;7.57;6.88;;;;;;;25.01;48.46;96295.38;3582275;40;20052;-62
2021/06/28 08:52:20;;;;;;;10.13;7.20;;;;;;;25.27;48.32;96294.94;3582954;40;20049;-63
2021/06/28 08:54:48;;;;;;;7.68;6.55;;;;;;;25.47;48.25;96293.22;3573643;40;20858;-62
2021/06/28 08:57:17;;;;;;;9.98;8.70;;;;;;;25.62;47.35;96293.63;3571927;40;20059;-63
2021/06/28 08:59:46;;;;;;;9.43;7.53;;;;;;;25.76;47.02;96294.00;3582789;40;20047;-62
2021/06/28 09:02:14;;;;;;;6.53;5.90;;;;;;;25.80;46.56;96294.09;3582983;40;20044;-62
2021/06/28 09:05:04;;;;;;;8.43;6.78;;;;;;;25.89;46.52;96281.22;3572935;40;20401;-62
2021/06/28 09:07:33;;;;;;;7.03;5.90;;;;;;;26.05;45.41;96283.91;3577589;40;20048;-62
2021/06/28 09:10:00;;;;;;;10.45;6.97;;;;;;;26.08;44.58;96291.34;3582647;40;20528;-62
2021/06/28 09:12:28;;;;;;;7.82;6.63;;;;;;;26.11;44.87;96287.19;3573703;40;20729;-61
2021/06/28 09:14:58;;;;;;;7.68;6.60;;;;;;;26.25;45.55;96279.44;3573562;40;20511;-62
2021/06/28 09:17:33;;;;;;;8.27;7.13;;;;;;;26.51;44.77;96267.28;3582906;40;20044;-62
2021/06/28 09:20:18;;;;;;;6.50;5.93;;;;;;;26.71;43.30;96267.31;3566751;40;20060;-63
2021/06/28 09:22:48;;;;;;;5.75;5.32;;;;;;;26.88;43.53;96263.50;3582978;40;20048;-62
2021/06/28 09:25:35;;;;;;;6.85;6.00;;;;;;;27.08;42.76;96255.38;3573745;40;20044;-63
2021/06/28 09:28:04;;;;;;;7.18;5.63;;;;;;;27.39;43.07;96259.09;3582124;40;20049;-63
2021/06/28 09:30:39;;;;;;;5.15;4.65;;;;;;;27.58;39.85;96263.72;3581619;40;20057;-63
2021/06/28 09:33:09;;;;;;;5.28;4.88;;;;;;;27.65;38.25;96257.66;3580966;40;20063;-62
2021/06/28 09:35:40;;;;;;;5.25;4.85;;;;;;;27.73;38.43;96260.16;3576906;40;20055;-63
2021/06/28 09:38:31;;;;;;;4.72;4.43;;;;;;;27.71;36.72;96259.72;3581890;40;20052;-62
2021/06/28 09:41:36;;;;;;;4.65;4.25;;;;;;;27.71;36.37;96258.94;3581155;40;20068;-62
2021/06/28 09:44:06;;;;;;;4.70;4.30;;;;;;;27.79;36.22;96255.22;3577766;40;20053;-62
2021/06/28 09:46:37;;;;;;;4.45;4.05;;;;;;;27.93;35.68;96250.06;3571812;40;20044;-62
2021/06/28 09:49:07;;;;;;;5.32;4.07;;;;;;;28.10;34.60;96249.94;3572018;40;20052;-62
2021/06/28 09:51:38;;;;;;;5.10;4.50;;;;;;;27.90;33.92;96248.06;3571886;40;20036;-62
2021/06/28 09:54:06;;;;;;;4.75;4.45;;;;;;;27.72;35.49;96252.41;3582693;40;20052;-62
2021/06/28 09:56:37;;;;;;;4.65;3.72;;;;;;;27.84;33.96;96248.72;3574114;40;20532;-62
2021/06/28 09:59:35;;;;;;;3.78;3.47;;;;;;;27.84;33.90;96241.38;3582364;40;20424;-62
2021/06/28 10:02:30;;;;;;;4.70;4.10;;;;;;;27.85;33.85;96244.84;3582657;40;20068;-62
2021/06/28 10:05:16;;;;;;;5.77;3.73;;;;;;;27.69;34.02;96237.63;3589579;40;20040;-62
2021/06/28 10:07:44;;;;;;;3.78;3.22;;;;;;;27.32;33.06;96236.16;3572939;40;20050;-62
2021/06/28 10:10:28;;;;;;;6.78;3.45;;;;;;;27.47;34.02;96237.22;3567816;40;20090;-62
2021/06/28 10:12:55;;;;;;;4.72;3.35;;;;;;;27.42;34.04;96231.28;3573574;40;20059;-62
2021/06/28 10:15:26;;;;;;;3.65;3.45;;;;;;;27.42;34.28;96225.88;3582415;40;20036;-62
2021/06/28 10:17:54;;;;;;;4.00;3.70;;;;;;;27.42;33.31;96232.09;3573366;40;20102;-62
2021/06/28 10:20:25;;;;;;;4.43;4.13;;;;;;;27.53;33.68;96237.72;3580527;40;20052;-62
2021/06/28 10:22:54;;;;;;;3.63;3.38;;;;;;;27.80;32.38;96229.69;3576701;40;20048;-61
2021/06/28 10:25:24;;;;;;;3.30;3.00;;;;;;;27.88;31.74;96231.34;3563275;40;20053;-62
2021/06/28 10:27:53;;;;;;;3.38;3.08;;;;;;;28.04;31.58;96230.47;3568321;40;20227;-62
2021/06/28 10:30:24;;;;;;;4.60;3.00;;;;;;;28.19;32.20;96226.88;3581251;40;20053;-62
2021/06/28 10:32:58;;;;;;;3.22;2.92;;;;;;;28.39;30.85;96216.72;3581990;40;20070;-62
2021/06/28 10:35:28;;;;;;;;;;;;;;;28.58;30.93;96225.88;3581158;40;20052;-62
2021/06/28 10:38:01;;;;;;;3.35;2.90;;;;;;;28.77;30.46;96218.81;3582685;40;20023;-62
2021/06/28 10:40:45;;;;;;;3.10;2.90;;;;;;;29.04;28.79;96211.38;3573699;40;20063;-65
2021/06/28 10:43:32;;;;;;;2.60;2.40;;;;;;;28.99;29.28;96214.41;3575259;40;20143;-62
2021/06/28 10:46:02;;;;;;;4.03;2.55;;;;;;;29.12;28.68;96214.97;3573339;40;20048;-61
2021/06/28 10:48:43;;;;;;;3.40;3.20;;;;;;;29.06;29.53;96211.81;3575782;40;20559;-61
2021/06/28 10:51:12;;;;;;;3.58;2.80;;;;;;;29.07;29.46;96213.38;3576002;40;20412;-61
2021/06/28 10:53:40;;;;;;;3.13;2.83;;;;;;;28.72;29.47;96211.78;3577283;40;20053;-61
2021/06/28 10:56:28;;;;;;;3.92;3.58;;;;;;;28.48;30.35;96210.25;3571765;40;20057;-61
2021/06/28 10:59:04;;;;;;;3.22;3.03;;;;;;;28.22;31.24;96207.16;3587714;40;20040;-61
2021/06/28 11:01:37;;;;;;;4.57;3.45;;;;;;;28.48;30.90;96219.19;3572616;40;20055;-60
2021/06/28 11:04:13;;;;;;;3.25;3.03;;;;;;;28.67;30.38;96215.56;3578998;40;20057;-61
2021/06/28 11:07:05;;;;;;;3.00;2.80;;;;;;;28.61;29.90;96210.81;3576747;40;20056;-61
2021/06/28 11:09:36;;;;;;;3.22;3.00;;;;;;;28.32;30.96;96215.81;3566655;40;20052;-61
2021/06/28 11:12:24;;;;;;;2.97;2.78;;;;;;;28.21;31.07;96193.94;3569998;40;20055;-61
2021/06/28 11:14:57;;;;;;;3.10;2.80;;;;;;;28.39;31.71;96211.28;3576618;40;20846;-61
2021/06/28 11:17:41;;;;;;;3.10;2.60;;;;;;;28.04;30.86;96206.84;3579001;40;20086;-61
2021/06/28 11:20:25;;;;;;;4.10;3.80;;;;;;;28.17;31.71;96198.56;3571930;40;20052;-60
2021/06/28 11:23:19;;;;;;;5.75;3.65;;;;;;;28.48;31.10;96207.53;3570928;40;20117;-63
2021/06/28 11:25:52;;;;;;;4.38;3.63;;;;;;;28.49;30.88;96196.28;3578242;40;20045;-60
2021/06/28 11:28:37;;;;;;;3.78;3.47;;;;;;;28.46;31.64;96191.63;3560952;40;20597;-61
2021/06/28 11:31:10;;;;;;;3.70;3.40;;;;;;;28.19;30.99;96190.81;3582034;40;20045;-61
2021/06/28 11:33:48;;;;;;;5.45;4.13;;;;;;;27.95;31.46;96200.88;3570199;40;20059;-62
2021/06/28 11:36:22;;;;;;;4.13;3.33;;;;;;;27.75;32.56;96194.75;3581112;40;20055;-61
2021/06/28 11:38:51;;;;;;;5.53;4.40;;;;;;;27.92;32.47;96194.25;3581104;40;20070;-62
2021/06/28 11:41:24;;;;;;;4.22;3.92;;;;;;;28.19;32.25;96193.53;3561784;40;20426;-61